sensor_id;sensor_type;location;lat;lon;timestamp;P1;durP1;ratioP1;P2;durP2;ratioP2
19111;SDS011;9688;51.906;8.376;2023-08-08T00:01:47;7.60;;;3.87;;
19111;SDS011;9688;51.906;8.376;2023-08-08T00:04:32;6.47;;;3.83;;
19111;SDS011;9688;51.906;8.376;2023-08-08T00:07:18;5.47;;;3.60;;
19111;SDS011;9688;51.906;8.376;2023-08-08T00:10:04;7.10;;;3.90;;
19111;SDS011;9688;51.906;8.376;2023-08-08T00:12:52;8.23;;;4.00;;
19111;SDS011;9688;51.906;8.376;2023-08-08T00:15:38;3.67;;;3.17;;
19111;SDS011;9688;51.906;8.376;2023-08-08T00:18:23;5.80;;;4.00;;
19111;SDS011;9688;51.906;8.376;2023-08-08T00:21:09;3.47;;;3.10;;
19111;SDS011;9688;51.906;8.376;2023-08-08T00:23:55;7.23;;;3.50;;
19111;SDS011;9688;51.906;8.376;2023-08-08T00:26:41;5.67;;;3.60;;
19111;SDS011;9688;51.906;8.376;2023-08-08T00:29:28;9.03;;;4.07;;
19111;SDS011;9688;51.906;8.376;2023-08-08T00:32:14;5.57;;;3.73;;
19111;SDS011;9688;51.906;8.376;2023-08-08T00:35:00;6.77;;;3.80;;
19111;SDS011;9688;51.906;8.376;2023-08-08T00:37:46;4.80;;;3.80;;
19111;SDS011;9688;51.906;8.376;2023-08-08T00:40:32;4.67;;;3.70;;
19111;SDS011;9688;51.906;8.376;2023-08-08T00:43:17;5.50;;;4.20;;
19111;SDS011;9688;51.906;8.376;2023-08-08T00:46:05;5.27;;;3.83;;
19111;SDS011;9688;51.906;8.376;2023-08-08T00:48:51;5.53;;;4.13;;
19111;SDS011;9688;51.906;8.376;2023-08-08T00:51:37;5.47;;;3.80;;
19111;SDS011;9688;51.906;8.376;2023-08-08T00:54:23;5.50;;;4.30;;
19111;SDS011;9688;51.906;8.376;2023-08-08T00:57:09;5.50;;;3.70;;
19111;SDS011;9688;51.906;8.376;2023-08-08T00:59:54;10.27;;;4.40;;
19111;SDS011;9688;51.906;8.376;2023-08-08T01:02:42;5.97;;;3.90;;
19111;SDS011;9688;51.906;8.376;2023-08-08T01:05:28;9.00;;;3.87;;
19111;SDS011;9688;51.906;8.376;2023-08-08T01:08:19;6.33;;;3.73;;
19111;SDS011;9688;51.906;8.376;2023-08-08T01:11:11;5.47;;;3.50;;
19111;SDS011;9688;51.906;8.376;2023-08-08T01:13:57;7.63;;;3.70;;
19111;SDS011;9688;51.906;8.376;2023-08-08T01:16:44;5.53;;;3.93;;
19111;SDS011;9688;51.906;8.376;2023-08-08T01:19:31;7.97;;;3.90;;
19111;SDS011;9688;51.906;8.376;2023-08-08T01:22:21;6.97;;;3.43;;
19111;SDS011;9688;51.906;8.376;2023-08-08T01:25:11;5.07;;;3.10;;
19111;SDS011;9688;51.906;8.376;2023-08-08T01:27:57;4.67;;;3.00;;
19111;SDS011;9688;51.906;8.376;2023-08-08T01:30:43;5.13;;;3.00;;
19111;SDS011;9688;51.906;8.376;2023-08-08T01:33:29;4.50;;;2.97;;
19111;SDS011;9688;51.906;8.376;2023-08-08T01:36:16;5.07;;;3.20;;
19111;SDS011;9688;51.906;8.376;2023-08-08T01:39:07;5.10;;;2.90;;
19111;SDS011;9688;51.906;8.376;2023-08-08T01:42:00;3.53;;;2.73;;
19111;SDS011;9688;51.906;8.376;2023-08-08T01:44:46;3.13;;;2.73;;
19111;SDS011;9688;51.906;8.376;2023-08-08T01:47:33;5.17;;;2.50;;
19111;SDS011;9688;51.906;8.376;2023-08-08T01:50:19;3.13;;;2.80;;
19111;SDS011;9688;51.906;8.376;2023-08-08T01:53:05;2.80;;;2.60;;
19111;SDS011;9688;51.906;8.376;2023-08-08T01:55:51;2.40;;;2.20;;
19111;SDS011;9688;51.906;8.376;2023-08-08T01:58:38;3.90;;;2.27;;
19111;SDS011;9688;51.906;8.376;2023-08-08T02:01:24;3.40;;;2.67;;
19111;SDS011;9688;51.906;8.376;2023-08-08T02:04:10;3.13;;;2.40;;
19111;SDS011;9688;51.906;8.376;2023-08-08T02:06:55;4.03;;;2.67;;
19111;SDS011;9688;51.906;8.376;2023-08-08T02:09:41;4.63;;;2.60;;
19111;SDS011;9688;51.906;8.376;2023-08-08T02:12:29;3.53;;;2.87;;
19111;SDS011;9688;51.906;8.376;2023-08-08T02:15:17;2.67;;;2.47;;
19111;SDS011;9688;51.906;8.376;2023-08-08T02:18:03;4.13;;;2.50;;
19111;SDS011;9688;51.906;8.376;2023-08-08T02:20:49;3.57;;;2.67;;
19111;SDS011;9688;51.906;8.376;2023-08-08T02:23:35;2.80;;;2.60;;
19111;SDS011;9688;51.906;8.376;2023-08-08T02:26:20;4.20;;;2.70;;
19111;SDS011;9688;51.906;8.376;2023-08-08T02:29:06;3.77;;;2.67;;
19111;SDS011;9688;51.906;8.376;2023-08-08T02:31:54;2.97;;;2.20;;
19111;SDS011;9688;51.906;8.376;2023-08-08T02:34:39;6.37;;;2.60;;
19111;SDS011;9688;51.906;8.376;2023-08-08T02:37:25;2.77;;;2.50;;
19111;SDS011;9688;51.906;8.376;2023-08-08T02:40:11;3.63;;;2.40;;
19111;SDS011;9688;51.906;8.376;2023-08-08T02:42:56;4.60;;;2.53;;
19111;SDS011;9688;51.906;8.376;2023-08-08T02:45:42;2.87;;;2.57;;
19111;SDS011;9688;51.906;8.376;2023-08-08T02:48:30;2.60;;;2.40;;
19111;SDS011;9688;51.906;8.376;2023-08-08T02:51:18;2.63;;;2.20;;
19111;SDS011;9688;51.906;8.376;2023-08-08T02:54:05;2.80;;;2.33;;
19111;SDS011;9688;51.906;8.376;2023-08-08T02:56:51;3.43;;;2.77;;
19111;SDS011;9688;51.906;8.376;2023-08-08T02:59:37;5.40;;;2.70;;
19111;SDS011;9688;51.906;8.376;2023-08-08T03:02:22;5.17;;;3.10;;
19111;SDS011;9688;51.906;8.376;2023-08-08T03:05:10;5.07;;;3.50;;
19111;SDS011;9688;51.906;8.376;2023-08-08T03:07:55;4.07;;;3.67;;
19111;SDS011;9688;51.906;8.376;2023-08-08T03:10:41;5.30;;;4.03;;
19111;SDS011;9688;51.906;8.376;2023-08-08T03:13:26;7.97;;;4.37;;
19111;SDS011;9688;51.906;8.376;2023-08-08T03:16:12;5.67;;;4.40;;
19111;SDS011;9688;51.906;8.376;2023-08-08T03:19:00;5.77;;;5.00;;
19111;SDS011;9688;51.906;8.376;2023-08-08T03:21:47;7.93;;;5.00;;
19111;SDS011;9688;51.906;8.376;2023-08-08T03:24:33;6.77;;;5.17;;
19111;SDS011;9688;51.906;8.376;2023-08-08T03:27:25;8.47;;;5.73;;
19111;SDS011;9688;51.906;8.376;2023-08-08T03:30:11;7.90;;;5.60;;
19111;SDS011;9688;51.906;8.376;2023-08-08T03:32:58;13.00;;;6.07;;
19111;SDS011;9688;51.906;8.376;2023-08-08T03:35:43;9.23;;;5.70;;
19111;SDS011;9688;51.906;8.376;2023-08-08T03:38:31;9.23;;;5.53;;
19111;SDS011;9688;51.906;8.376;2023-08-08T03:41:16;8.23;;;5.10;;
19111;SDS011;9688;51.906;8.376;2023-08-08T03:44:02;10.97;;;6.00;;
19111;SDS011;9688;51.906;8.376;2023-08-08T03:46:48;8.37;;;5.87;;
19111;SDS011;9688;51.906;8.376;2023-08-08T03:49:34;9.37;;;5.60;;
19111;SDS011;9688;51.906;8.376;2023-08-08T03:52:20;9.20;;;5.37;;
19111;SDS011;9688;51.906;8.376;2023-08-08T03:55:08;9.63;;;5.77;;
19111;SDS011;9688;51.906;8.376;2023-08-08T03:57:54;9.97;;;5.83;;
19111;SDS011;9688;51.906;8.376;2023-08-08T04:00:40;10.60;;;6.03;;
19111;SDS011;9688;51.906;8.376;2023-08-08T04:03:30;10.83;;;5.70;;
19111;SDS011;9688;51.906;8.376;2023-08-08T04:06:16;8.40;;;5.40;;
19111;SDS011;9688;51.906;8.376;2023-08-08T04:09:01;8.20;;;5.53;;
19111;SDS011;9688;51.906;8.376;2023-08-08T04:11:49;9.20;;;5.43;;
19111;SDS011;9688;51.906;8.376;2023-08-08T04:14:35;8.40;;;5.20;;
19111;SDS011;9688;51.906;8.376;2023-08-08T04:17:20;9.97;;;5.57;;
19111;SDS011;9688;51.906;8.376;2023-08-08T04:20:07;11.10;;;5.47;;
19111;SDS011;9688;51.906;8.376;2023-08-08T04:22:54;9.50;;;5.30;;
19111;SDS011;9688;51.906;8.376;2023-08-08T04:25:40;10.37;;;5.60;;
19111;SDS011;9688;51.906;8.376;2023-08-08T04:28:27;10.93;;;5.33;;
19111;SDS011;9688;51.906;8.376;2023-08-08T04:31:13;9.43;;;5.70;;
19111;SDS011;9688;51.906;8.376;2023-08-08T04:33:59;8.30;;;5.40;;
19111;SDS011;9688;51.906;8.376;2023-08-08T04:36:45;8.63;;;5.17;;
19111;SDS011;9688;51.906;8.376;2023-08-08T04:39:31;9.90;;;5.03;;
19111;SDS011;9688;51.906;8.376;2023-08-08T04:42:17;8.07;;;5.30;;
19111;SDS011;9688;51.906;8.376;2023-08-08T04:45:05;6.23;;;5.33;;
19111;SDS011;9688;51.906;8.376;2023-08-08T04:47:52;8.83;;;5.97;;
19111;SDS011;9688;51.906;8.376;2023-08-08T04:50:37;8.10;;;5.43;;
19111;SDS011;9688;51.906;8.376;2023-08-08T04:53:25;6.33;;;4.80;;
19111;SDS011;9688;51.906;8.376;2023-08-08T04:56:12;7.57;;;4.50;;
19111;SDS011;9688;51.906;8.376;2023-08-08T04:58:57;8.10;;;4.90;;
19111;SDS011;9688;51.906;8.376;2023-08-08T05:01:44;8.73;;;4.77;;
19111;SDS011;9688;51.906;8.376;2023-08-08T05:04:30;10.13;;;5.30;;
19111;SDS011;9688;51.906;8.376;2023-08-08T05:07:16;9.47;;;5.10;;
19111;SDS011;9688;51.906;8.376;2023-08-08T05:10:02;9.83;;;5.40;;
19111;SDS011;9688;51.906;8.376;2023-08-08T05:12:49;7.97;;;4.87;;
19111;SDS011;9688;51.906;8.376;2023-08-08T05:15:35;10.00;;;4.87;;
19111;SDS011;9688;51.906;8.376;2023-08-08T05:18:23;9.53;;;4.57;;
19111;SDS011;9688;51.906;8.376;2023-08-08T05:21:09;11.13;;;4.93;;
19111;SDS011;9688;51.906;8.376;2023-08-08T05:23:55;9.47;;;5.90;;
19111;SDS011;9688;51.906;8.376;2023-08-08T05:26:41;6.17;;;4.80;;
19111;SDS011;9688;51.906;8.376;2023-08-08T05:29:27;9.07;;;4.70;;
19111;SDS011;9688;51.906;8.376;2023-08-08T05:32:13;8.67;;;5.50;;
19111;SDS011;9688;51.906;8.376;2023-08-08T05:35:00;10.23;;;4.43;;
19111;SDS011;9688;51.906;8.376;2023-08-08T05:37:48;11.13;;;5.20;;
19111;SDS011;9688;51.906;8.376;2023-08-08T05:40:34;9.77;;;4.53;;
19111;SDS011;9688;51.906;8.376;2023-08-08T05:43:20;8.97;;;4.83;;
19111;SDS011;9688;51.906;8.376;2023-08-08T05:46:08;8.47;;;5.00;;
19111;SDS011;9688;51.906;8.376;2023-08-08T05:48:54;13.57;;;5.43;;
19111;SDS011;9688;51.906;8.376;2023-08-08T05:51:42;5.23;;;4.37;;
19111;SDS011;9688;51.906;8.376;2023-08-08T05:54:27;6.60;;;4.70;;
19111;SDS011;9688;51.906;8.376;2023-08-08T05:57:13;9.40;;;4.80;;
19111;SDS011;9688;51.906;8.376;2023-08-08T05:59:59;11.70;;;4.80;;
19111;SDS011;9688;51.906;8.376;2023-08-08T06:02:45;9.67;;;4.63;;
19111;SDS011;9688;51.906;8.376;2023-08-08T06:05:31;11.00;;;5.10;;
19111;SDS011;9688;51.906;8.376;2023-08-08T06:08:21;6.10;;;5.23;;
19111;SDS011;9688;51.906;8.376;2023-08-08T06:11:07;9.60;;;5.63;;
19111;SDS011;9688;51.906;8.376;2023-08-08T06:13:53;10.63;;;6.20;;
19111;SDS011;9688;51.906;8.376;2023-08-08T06:16:39;9.37;;;6.27;;
19111;SDS011;9688;51.906;8.376;2023-08-08T06:19:25;15.50;;;6.77;;
19111;SDS011;9688;51.906;8.376;2023-08-08T06:22:11;15.83;;;8.00;;
19111;SDS011;9688;51.906;8.376;2023-08-08T06:24:59;11.73;;;7.57;;
19111;SDS011;9688;51.906;8.376;2023-08-08T06:27:45;17.30;;;8.23;;
19111;SDS011;9688;51.906;8.376;2023-08-08T06:30:31;18.57;;;9.43;;
19111;SDS011;9688;51.906;8.376;2023-08-08T06:33:17;13.80;;;9.17;;
19111;SDS011;9688;51.906;8.376;2023-08-08T06:36:03;13.53;;;9.70;;
19111;SDS011;9688;51.906;8.376;2023-08-08T06:38:49;20.33;;;10.53;;
19111;SDS011;9688;51.906;8.376;2023-08-08T06:41:36;14.53;;;10.47;;
19111;SDS011;9688;51.906;8.376;2023-08-08T06:44:23;19.33;;;10.73;;
19111;SDS011;9688;51.906;8.376;2023-08-08T06:47:09;15.53;;;11.60;;
19111;SDS011;9688;51.906;8.376;2023-08-08T06:49:55;20.77;;;11.23;;
19111;SDS011;9688;51.906;8.376;2023-08-08T06:52:41;18.53;;;12.33;;
19111;SDS011;9688;51.906;8.376;2023-08-08T06:55:28;20.20;;;12.30;;
19111;SDS011;9688;51.906;8.376;2023-08-08T06:58:17;20.90;;;12.17;;
19111;SDS011;9688;51.906;8.376;2023-08-08T07:01:03;18.50;;;12.17;;
19111;SDS011;9688;51.906;8.376;2023-08-08T07:03:50;18.67;;;12.63;;
19111;SDS011;9688;51.906;8.376;2023-08-08T07:06:35;19.23;;;12.93;;
19111;SDS011;9688;51.906;8.376;2023-08-08T07:09:21;18.33;;;12.20;;
19111;SDS011;9688;51.906;8.376;2023-08-08T07:12:07;23.67;;;13.87;;
19111;SDS011;9688;51.906;8.376;2023-08-08T07:14:55;21.23;;;13.30;;
19111;SDS011;9688;51.906;8.376;2023-08-08T07:17:42;19.03;;;12.70;;
19111;SDS011;9688;51.906;8.376;2023-08-08T07:20:27;18.10;;;13.17;;
19111;SDS011;9688;51.906;8.376;2023-08-08T07:23:14;22.13;;;13.70;;
19111;SDS011;9688;51.906;8.376;2023-08-08T07:26:00;23.53;;;13.83;;
19111;SDS011;9688;51.906;8.376;2023-08-08T07:28:45;19.60;;;12.43;;
19111;SDS011;9688;51.906;8.376;2023-08-08T07:31:33;22.27;;;13.67;;
19111;SDS011;9688;51.906;8.376;2023-08-08T07:34:19;25.67;;;13.87;;
19111;SDS011;9688;51.906;8.376;2023-08-08T07:37:04;22.40;;;15.03;;
19111;SDS011;9688;51.906;8.376;2023-08-08T07:39:50;24.90;;;14.40;;
19111;SDS011;9688;51.906;8.376;2023-08-08T07:42:39;23.40;;;15.47;;
19111;SDS011;9688;51.906;8.376;2023-08-08T07:45:25;19.83;;;14.90;;
19111;SDS011;9688;51.906;8.376;2023-08-08T07:48:13;25.53;;;15.47;;
19111;SDS011;9688;51.906;8.376;2023-08-08T07:51:00;25.83;;;16.20;;
19111;SDS011;9688;51.906;8.376;2023-08-08T07:53:47;27.23;;;15.67;;
19111;SDS011;9688;51.906;8.376;2023-08-08T07:56:33;25.00;;;15.40;;
19111;SDS011;9688;51.906;8.376;2023-08-08T07:59:19;27.27;;;15.93;;
19111;SDS011;9688;51.906;8.376;2023-08-08T08:02:05;22.27;;;15.03;;
19111;SDS011;9688;51.906;8.376;2023-08-08T08:04:53;28.03;;;15.17;;
19111;SDS011;9688;51.906;8.376;2023-08-08T08:07:39;22.10;;;14.70;;
19111;SDS011;9688;51.906;8.376;2023-08-08T08:10:25;22.53;;;14.77;;
19111;SDS011;9688;51.906;8.376;2023-08-08T08:13:11;26.50;;;14.80;;
19111;SDS011;9688;51.906;8.376;2023-08-08T08:15:57;26.20;;;15.00;;
19111;SDS011;9688;51.906;8.376;2023-08-08T08:18:43;23.53;;;14.57;;
19111;SDS011;9688;51.906;8.376;2023-08-08T08:21:31;31.77;;;14.87;;
19111;SDS011;9688;51.906;8.376;2023-08-08T08:24:16;23.40;;;13.77;;
19111;SDS011;9688;51.906;8.376;2023-08-08T08:27:03;20.97;;;13.93;;
19111;SDS011;9688;51.906;8.376;2023-08-08T08:29:50;20.33;;;13.40;;
19111;SDS011;9688;51.906;8.376;2023-08-08T08:32:36;24.57;;;14.17;;
19111;SDS011;9688;51.906;8.376;2023-08-08T08:35:22;21.80;;;14.07;;
19111;SDS011;9688;51.906;8.376;2023-08-08T08:38:11;27.50;;;14.30;;
19111;SDS011;9688;51.906;8.376;2023-08-08T08:40:58;23.53;;;14.07;;
19111;SDS011;9688;51.906;8.376;2023-08-08T08:43:44;22.17;;;15.03;;
19111;SDS011;9688;51.906;8.376;2023-08-08T08:46:31;25.67;;;14.40;;
19111;SDS011;9688;51.906;8.376;2023-08-08T08:49:21;21.90;;;14.60;;
19111;SDS011;9688;51.906;8.376;2023-08-08T08:52:08;23.60;;;14.57;;
19111;SDS011;9688;51.906;8.376;2023-08-08T08:54:59;26.67;;;13.47;;
19111;SDS011;9688;51.906;8.376;2023-08-08T08:57:46;25.80;;;15.17;;
19111;SDS011;9688;51.906;8.376;2023-08-08T09:00:33;22.13;;;13.90;;
19111;SDS011;9688;51.906;8.376;2023-08-08T09:03:21;18.43;;;11.60;;
19111;SDS011;9688;51.906;8.376;2023-08-08T09:06:07;22.93;;;13.57;;
19111;SDS011;9688;51.906;8.376;2023-08-08T09:08:53;25.60;;;13.80;;
19111;SDS011;9688;51.906;8.376;2023-08-08T09:11:41;24.07;;;12.60;;
19111;SDS011;9688;51.906;8.376;2023-08-08T09:14:28;20.87;;;13.20;;
19111;SDS011;9688;51.906;8.376;2023-08-08T09:17:15;23.33;;;14.10;;
19111;SDS011;9688;51.906;8.376;2023-08-08T09:20:01;21.93;;;13.53;;
19111;SDS011;9688;51.906;8.376;2023-08-08T09:22:47;24.80;;;15.63;;
19111;SDS011;9688;51.906;8.376;2023-08-08T09:25:34;25.37;;;15.57;;
19111;SDS011;9688;51.906;8.376;2023-08-08T09:28:22;26.50;;;16.77;;
19111;SDS011;9688;51.906;8.376;2023-08-08T09:31:09;16.63;;;11.63;;
19111;SDS011;9688;51.906;8.376;2023-08-08T09:33:58;22.30;;;11.77;;
19111;SDS011;9688;51.906;8.376;2023-08-08T09:36:45;20.33;;;12.23;;
19111;SDS011;9688;51.906;8.376;2023-08-08T09:39:31;25.13;;;14.40;;
19111;SDS011;9688;51.906;8.376;2023-08-08T09:42:17;19.87;;;13.27;;
19111;SDS011;9688;51.906;8.376;2023-08-08T09:45:07;21.60;;;12.53;;
19111;SDS011;9688;51.906;8.376;2023-08-08T09:47:54;21.23;;;11.50;;
19111;SDS011;9688;51.906;8.376;2023-08-08T09:50:41;17.00;;;10.53;;
19111;SDS011;9688;51.906;8.376;2023-08-08T09:53:28;12.00;;;7.77;;
19111;SDS011;9688;51.906;8.376;2023-08-08T09:56:14;15.57;;;8.03;;
19111;SDS011;9688;51.906;8.376;2023-08-08T09:59:01;9.90;;;6.10;;
19111;SDS011;9688;51.906;8.376;2023-08-08T10:01:49;9.53;;;4.47;;
19111;SDS011;9688;51.906;8.376;2023-08-08T10:04:36;8.77;;;3.50;;
19111;SDS011;9688;51.906;8.376;2023-08-08T10:07:23;5.63;;;3.60;;
19111;SDS011;9688;51.906;8.376;2023-08-08T10:10:10;7.70;;;3.80;;
19111;SDS011;9688;51.906;8.376;2023-08-08T10:12:56;6.17;;;3.40;;
19111;SDS011;9688;51.906;8.376;2023-08-08T10:15:43;10.33;;;3.57;;
19111;SDS011;9688;51.906;8.376;2023-08-08T10:18:31;6.53;;;3.43;;
19111;SDS011;9688;51.906;8.376;2023-08-08T10:21:19;6.00;;;3.07;;
19111;SDS011;9688;51.906;8.376;2023-08-08T10:24:10;4.67;;;2.40;;
19111;SDS011;9688;51.906;8.376;2023-08-08T10:27:02;5.77;;;2.87;;
19111;SDS011;9688;51.906;8.376;2023-08-08T10:29:50;8.37;;;3.10;;
19111;SDS011;9688;51.906;8.376;2023-08-08T10:32:40;5.33;;;3.07;;
19111;SDS011;9688;51.906;8.376;2023-08-08T10:35:36;7.67;;;3.63;;
19111;SDS011;9688;51.906;8.376;2023-08-08T10:38:22;7.13;;;2.50;;
19111;SDS011;9688;51.906;8.376;2023-08-08T10:41:10;3.87;;;2.10;;
19111;SDS011;9688;51.906;8.376;2023-08-08T10:44:00;4.07;;;2.70;;
19111;SDS011;9688;51.906;8.376;2023-08-08T10:46:49;4.00;;;2.50;;
19111;SDS011;9688;51.906;8.376;2023-08-08T10:49:41;8.77;;;2.70;;
19111;SDS011;9688;51.906;8.376;2023-08-08T10:52:29;5.30;;;2.97;;
19111;SDS011;9688;51.906;8.376;2023-08-08T10:55:18;6.17;;;2.80;;
19111;SDS011;9688;51.906;8.376;2023-08-08T10:58:04;3.50;;;2.40;;
19111;SDS011;9688;51.906;8.376;2023-08-08T11:00:51;4.07;;;2.17;;
19111;SDS011;9688;51.906;8.376;2023-08-08T11:03:42;2.50;;;2.00;;
19111;SDS011;9688;51.906;8.376;2023-08-08T11:06:28;3.93;;;2.13;;
19111;SDS011;9688;51.906;8.376;2023-08-08T11:09:16;2.60;;;2.03;;
19111;SDS011;9688;51.906;8.376;2023-08-08T11:12:03;3.97;;;2.07;;
19111;SDS011;9688;51.906;8.376;2023-08-08T11:14:51;2.50;;;1.60;;
19111;SDS011;9688;51.906;8.376;2023-08-08T11:17:38;4.47;;;1.80;;
19111;SDS011;9688;51.906;8.376;2023-08-08T11:20:24;6.47;;;1.50;;
19111;SDS011;9688;51.906;8.376;2023-08-08T11:23:10;2.00;;;1.90;;
19111;SDS011;9688;51.906;8.376;2023-08-08T11:26:02;2.93;;;1.67;;
19111;SDS011;9688;51.906;8.376;2023-08-08T11:28:49;3.17;;;1.73;;
19111;SDS011;9688;51.906;8.376;2023-08-08T11:31:35;3.00;;;2.00;;
19111;SDS011;9688;51.906;8.376;2023-08-08T11:34:22;2.97;;;1.80;;
19111;SDS011;9688;51.906;8.376;2023-08-08T11:37:09;1.45;;;1.35;;
19111;SDS011;9688;51.906;8.376;2023-08-08T11:39:59;1.83;;;1.57;;
19111;SDS011;9688;51.906;8.376;2023-08-08T11:42:47;8.70;;;1.40;;
19111;SDS011;9688;51.906;8.376;2023-08-08T11:45:35;2.10;;;1.40;;
19111;SDS011;9688;51.906;8.376;2023-08-08T11:48:21;3.45;;;1.70;;
19111;SDS011;9688;51.906;8.376;2023-08-08T11:51:07;3.83;;;1.40;;
19111;SDS011;9688;51.906;8.376;2023-08-08T11:53:53;1.50;;;1.30;;
19111;SDS011;9688;51.906;8.376;2023-08-08T11:56:39;2.03;;;1.30;;
19111;SDS011;9688;51.906;8.376;2023-08-08T11:59:28;2.57;;;1.37;;
19111;SDS011;9688;51.906;8.376;2023-08-08T12:02:16;2.30;;;1.40;;
19111;SDS011;9688;51.906;8.376;2023-08-08T12:05:05;1.50;;;1.40;;
19111;SDS011;9688;51.906;8.376;2023-08-08T12:07:51;2.63;;;1.60;;
19111;SDS011;9688;51.906;8.376;2023-08-08T12:10:37;1.10;;;1.00;;
19111;SDS011;9688;51.906;8.376;2023-08-08T12:13:23;3.77;;;1.33;;
19111;SDS011;9688;51.906;8.376;2023-08-08T12:16:13;2.67;;;1.20;;
19111;SDS011;9688;51.906;8.376;2023-08-08T12:19:00;6.30;;;1.47;;
19111;SDS011;9688;51.906;8.376;2023-08-08T12:21:47;3.03;;;1.40;;
19111;SDS011;9688;51.906;8.376;2023-08-08T12:24:33;5.83;;;1.57;;
19111;SDS011;9688;51.906;8.376;2023-08-08T12:27:19;1.40;;;1.23;;
19111;SDS011;9688;51.906;8.376;2023-08-08T12:30:06;1.60;;;1.50;;
19111;SDS011;9688;51.906;8.376;2023-08-08T12:32:54;4.70;;;1.47;;
19111;SDS011;9688;51.906;8.376;2023-08-08T12:35:40;2.10;;;1.73;;
19111;SDS011;9688;51.906;8.376;2023-08-08T12:38:26;4.30;;;1.80;;
19111;SDS011;9688;51.906;8.376;2023-08-08T12:41:12;2.93;;;1.27;;
19111;SDS011;9688;51.906;8.376;2023-08-08T12:43:58;2.30;;;1.20;;
19111;SDS011;9688;51.906;8.376;2023-08-08T12:46:44;3.80;;;1.30;;
19111;SDS011;9688;51.906;8.376;2023-08-08T12:49:32;2.20;;;1.30;;
19111;SDS011;9688;51.906;8.376;2023-08-08T12:52:18;2.10;;;1.00;;
19111;SDS011;9688;51.906;8.376;2023-08-08T12:55:05;2.72;;;1.42;;
19111;SDS011;9688;51.906;8.376;2023-08-08T12:57:55;2.08;;;1.17;;
19111;SDS011;9688;51.906;8.376;2023-08-08T13:03:53;3.80;;;1.43;;
19111;SDS011;9688;51.906;8.376;2023-08-08T13:10:42;3.57;;;1.00;;
19111;SDS011;9688;51.906;8.376;2023-08-08T13:13:28;3.40;;;1.10;;
19111;SDS011;9688;51.906;8.376;2023-08-08T13:16:15;2.50;;;1.20;;
19111;SDS011;9688;51.906;8.376;2023-08-08T13:19:02;2.47;;;1.60;;
19111;SDS011;9688;51.906;8.376;2023-08-08T13:21:49;2.93;;;1.40;;
19111;SDS011;9688;51.906;8.376;2023-08-08T13:24:35;3.30;;;1.40;;
19111;SDS011;9688;51.906;8.376;2023-08-08T13:27:23;2.83;;;1.40;;
19111;SDS011;9688;51.906;8.376;2023-08-08T13:30:09;2.17;;;1.33;;
19111;SDS011;9688;51.906;8.376;2023-08-08T13:32:59;7.73;;;1.40;;
19111;SDS011;9688;51.906;8.376;2023-08-08T13:35:45;3.60;;;1.90;;
19111;SDS011;9688;51.906;8.376;2023-08-08T13:38:31;3.00;;;1.40;;
19111;SDS011;9688;51.906;8.376;2023-08-08T13:41:20;2.17;;;1.37;;
19111;SDS011;9688;51.906;8.376;2023-08-08T13:44:07;2.47;;;1.30;;
19111;SDS011;9688;51.906;8.376;2023-08-08T13:46:56;3.23;;;1.43;;
19111;SDS011;9688;51.906;8.376;2023-08-08T13:49:43;3.50;;;1.10;;
19111;SDS011;9688;51.906;8.376;2023-08-08T13:52:29;2.60;;;1.30;;
19111;SDS011;9688;51.906;8.376;2023-08-08T13:55:17;8.27;;;1.90;;
19111;SDS011;9688;51.906;8.376;2023-08-08T13:58:03;1.80;;;1.30;;
19111;SDS011;9688;51.906;8.376;2023-08-08T14:00:51;3.63;;;1.40;;
19111;SDS011;9688;51.906;8.376;2023-08-08T14:03:37;3.63;;;1.70;;
19111;SDS011;9688;51.906;8.376;2023-08-08T14:06:23;5.77;;;1.30;;
19111;SDS011;9688;51.906;8.376;2023-08-08T14:09:09;2.83;;;1.27;;
19111;SDS011;9688;51.906;8.376;2023-08-08T14:11:55;2.63;;;1.33;;
19111;SDS011;9688;51.906;8.376;2023-08-08T14:14:43;4.53;;;1.20;;
19111;SDS011;9688;51.906;8.376;2023-08-08T14:17:31;6.10;;;1.33;;
19111;SDS011;9688;51.906;8.376;2023-08-08T14:20:17;2.63;;;1.50;;
19111;SDS011;9688;51.906;8.376;2023-08-08T14:23:03;3.97;;;1.83;;
19111;SDS011;9688;51.906;8.376;2023-08-08T14:25:50;1.90;;;1.43;;
19111;SDS011;9688;51.906;8.376;2023-08-08T14:28:35;5.93;;;1.40;;
19111;SDS011;9688;51.906;8.376;2023-08-08T14:31:22;1.20;;;1.20;;
19111;SDS011;9688;51.906;8.376;2023-08-08T14:34:10;1.30;;;1.20;;
19111;SDS011;9688;51.906;8.376;2023-08-08T14:36:57;2.50;;;1.27;;
19111;SDS011;9688;51.906;8.376;2023-08-08T14:39:44;2.17;;;1.20;;
19111;SDS011;9688;51.906;8.376;2023-08-08T14:42:31;1.73;;;1.20;;
19111;SDS011;9688;51.906;8.376;2023-08-08T14:45:17;2.73;;;1.10;;
19111;SDS011;9688;51.906;8.376;2023-08-08T14:48:05;2.87;;;1.30;;
19111;SDS011;9688;51.906;8.376;2023-08-08T14:50:53;0.80;;;0.80;;
19111;SDS011;9688;51.906;8.376;2023-08-08T14:53:40;1.20;;;1.10;;
19111;SDS011;9688;51.906;8.376;2023-08-08T14:56:28;3.87;;;1.17;;
19111;SDS011;9688;51.906;8.376;2023-08-08T14:59:14;2.07;;;1.00;;
19111;SDS011;9688;51.906;8.376;2023-08-08T15:02:00;1.33;;;1.00;;
19111;SDS011;9688;51.906;8.376;2023-08-08T15:04:46;2.10;;;0.90;;
19111;SDS011;9688;51.906;8.376;2023-08-08T15:07:33;4.00;;;1.20;;
19111;SDS011;9688;51.906;8.376;2023-08-08T15:10:21;1.90;;;1.40;;
19111;SDS011;9688;51.906;8.376;2023-08-08T15:13:07;3.67;;;1.20;;
19111;SDS011;9688;51.906;8.376;2023-08-08T15:15:57;6.73;;;1.53;;
19111;SDS011;9688;51.906;8.376;2023-08-08T15:18:43;2.70;;;1.30;;
19111;SDS011;9688;51.906;8.376;2023-08-08T15:21:30;3.70;;;1.20;;
19111;SDS011;9688;51.906;8.376;2023-08-08T15:24:17;2.70;;;1.30;;
19111;SDS011;9688;51.906;8.376;2023-08-08T15:27:03;1.13;;;1.10;;
19111;SDS011;9688;51.906;8.376;2023-08-08T15:29:51;1.17;;;1.00;;
19111;SDS011;9688;51.906;8.376;2023-08-08T15:32:37;1.37;;;1.00;;
19111;SDS011;9688;51.906;8.376;2023-08-08T15:35:23;1.13;;;1.03;;
19111;SDS011;9688;51.906;8.376;2023-08-08T15:38:09;4.03;;;1.10;;
19111;SDS011;9688;51.906;8.376;2023-08-08T15:40:57;3.63;;;1.20;;
19111;SDS011;9688;51.906;8.376;2023-08-08T15:43:44;3.70;;;1.73;;
19111;SDS011;9688;51.906;8.376;2023-08-08T15:46:31;2.17;;;1.27;;
19111;SDS011;9688;51.906;8.376;2023-08-08T15:49:18;3.53;;;1.30;;
19111;SDS011;9688;51.906;8.376;2023-08-08T15:52:05;2.43;;;1.30;;
19111;SDS011;9688;51.906;8.376;2023-08-08T15:54:50;2.40;;;1.40;;
19111;SDS011;9688;51.906;8.376;2023-08-08T15:57:38;3.30;;;1.73;;
19111;SDS011;9688;51.906;8.376;2023-08-08T16:00:24;1.70;;;1.33;;
19111;SDS011;9688;51.906;8.376;2023-08-08T16:03:10;3.87;;;1.50;;
19111;SDS011;9688;51.906;8.376;2023-08-08T16:05:56;1.50;;;1.30;;
19111;SDS011;9688;51.906;8.376;2023-08-08T16:08:41;1.47;;;1.37;;
19111;SDS011;9688;51.906;8.376;2023-08-08T16:11:29;1.27;;;1.27;;
19111;SDS011;9688;51.906;8.376;2023-08-08T16:14:16;1.67;;;1.30;;
19111;SDS011;9688;51.906;8.376;2023-08-08T16:17:02;3.23;;;1.20;;
19111;SDS011;9688;51.906;8.376;2023-08-08T16:19:48;2.80;;;1.10;;
19111;SDS011;9688;51.906;8.376;2023-08-08T16:22:35;1.00;;;1.00;;
19111;SDS011;9688;51.906;8.376;2023-08-08T16:25:22;1.10;;;1.00;;
19111;SDS011;9688;51.906;8.376;2023-08-08T16:28:07;3.20;;;1.30;;
19111;SDS011;9688;51.906;8.376;2023-08-08T16:30:55;5.27;;;1.40;;
19111;SDS011;9688;51.906;8.376;2023-08-08T16:33:41;1.13;;;1.00;;
19111;SDS011;9688;51.906;8.376;2023-08-08T16:36:28;1.80;;;1.40;;
19111;SDS011;9688;51.906;8.376;2023-08-08T16:39:14;1.30;;;1.10;;
19111;SDS011;9688;51.906;8.376;2023-08-08T16:42:01;1.50;;;1.17;;
19111;SDS011;9688;51.906;8.376;2023-08-08T16:44:47;2.10;;;1.03;;
19111;SDS011;9688;51.906;8.376;2023-08-08T16:47:35;1.47;;;1.07;;
19111;SDS011;9688;51.906;8.376;2023-08-08T16:50:21;2.30;;;1.30;;
19111;SDS011;9688;51.906;8.376;2023-08-08T16:53:07;1.20;;;1.10;;
19111;SDS011;9688;51.906;8.376;2023-08-08T16:55:54;1.90;;;1.10;;
19111;SDS011;9688;51.906;8.376;2023-08-08T16:58:40;1.37;;;1.20;;
19111;SDS011;9688;51.906;8.376;2023-08-08T17:01:26;1.20;;;1.20;;